createdAt,value
2023-11-01T00:02:58.490Z,13.6
2023-11-01T00:08:50.423Z,13.5
2023-11-01T00:14:26.217Z,13.4
2023-11-01T00:20:03.525Z,13.3
2023-11-01T00:25:56.616Z,13.2
2023-11-01T00:31:33.007Z,13.1
2023-11-01T00:37:10.379Z,12.9
2023-11-01T00:42:46.265Z,12.9
2023-11-01T00:48:22.611Z,12.8
2023-11-01T00:53:59.679Z,12.6
2023-11-01T00:59:36.082Z,12.6
2023-11-01T01:04:58.353Z,12.5
2023-11-01T01:10:35.839Z,12.4
2023-11-01T01:16:27.463Z,12.4
2023-11-01T01:22:04.988Z,12.3
2023-11-01T01:27:57.525Z,12.3
2023-11-01T01:33:34.020Z,12.3
2023-11-01T01:39:25.499Z,12.2
2023-11-01T01:45:02.564Z,12.1
2023-11-01T01:50:46.057Z,12.1
2023-11-01T01:56:06.288Z,12.1
2023-11-01T02:01:34.674Z,12.1
2023-11-01T02:07:18.497Z,12
2023-11-01T02:12:55.016Z,12
2023-11-01T02:18:31.279Z,12
2023-11-01T02:24:07.392Z,11.9
2023-11-01T02:29:43.277Z,11.9
2023-11-01T02:35:20.078Z,11.9
2023-11-01T02:41:11.606Z,11.9
2023-11-01T02:46:48.132Z,11.9
2023-11-01T02:52:25.223Z,11.9
2023-11-01T02:57:45.406Z,11.8
2023-11-01T03:03:06.331Z,11.8
2023-11-01T03:08:43.312Z,11.8
2023-11-01T03:14:18.961Z,11.8
2023-11-01T03:19:55.538Z,11.8
2023-11-01T03:25:32.287Z,11.7
2023-11-01T03:31:08.107Z,11.7
2023-11-01T03:37:00.161Z,11.5
2023-11-01T03:42:37.159Z,11.3
2023-11-01T03:48:28.691Z,11.3
2023-11-01T03:54:05.477Z,11.2
2023-11-01T03:59:42.707Z,10.9
2023-11-01T04:05:20.239Z,10.7
2023-11-01T04:11:11.660Z,10.5
2023-11-01T04:16:48.014Z,10.4
2023-11-01T04:22:23.673Z,10.3
2023-11-01T04:27:59.722Z,10.1
2023-11-01T04:33:36.882Z,10
2023-11-01T04:39:12.880Z,9.8
2023-11-01T04:44:33.972Z,9.8
2023-11-01T04:50:12.883Z,9.6
2023-11-01T04:55:50.983Z,9.4
2023-11-01T05:01:27.412Z,9.3
2023-11-01T05:07:21.280Z,9.3
2023-11-01T05:12:56.949Z,9.3
2023-11-01T05:18:34.066Z,9.2
2023-11-01T05:24:10.525Z,9.2
2023-11-01T05:29:47.547Z,9.2
2023-11-01T05:35:26.217Z,9.3
2023-11-01T05:41:03.394Z,9.9
2023-11-01T05:46:09.032Z,11.3
2023-11-01T05:51:14.794Z,13.3
2023-11-01T05:57:06.401Z,15.8
2023-11-01T06:02:27.371Z,18.1
2023-11-01T06:08:04.634Z,20.6
2023-11-01T06:13:25.839Z,23.3
2023-11-01T06:19:04.116Z,26.1
2023-11-01T06:24:23.994Z,29.2
2023-11-01T06:30:01.157Z,32.1
2023-11-01T06:35:38.760Z,35.2
2023-11-01T06:41:15.715Z,37.8
2023-11-01T06:46:52.935Z,40.4
2023-11-01T06:52:30.167Z,42.9
2023-11-01T06:57:53.626Z,45.6
2023-11-01T07:03:15.876Z,50.6
2023-11-01T07:08:52.270Z,47.9
2023-11-01T07:14:12.620Z,42.3
2023-11-01T07:19:49.737Z,44.4
2023-11-01T07:30:46.782Z,52
2023-11-01T07:36:23.743Z,49.1
2023-11-01T07:41:59.397Z,47.9
2023-11-01T07:47:36.450Z,51.1
2023-11-01T07:53:13.866Z,46.7
2023-11-01T07:58:34.419Z,41
2023-11-01T08:04:11.743Z,39.2
2023-11-01T08:09:36.134Z,37.8
2023-11-01T08:14:58.315Z,36.3
2023-11-01T08:20:03.713Z,36.6
2023-11-01T08:25:09.779Z,35.6
2023-11-01T08:30:45.878Z,34.8
2023-11-01T08:36:08.542Z,34.2
2023-11-01T08:41:29.751Z,32.9
2023-11-01T08:47:22.078Z,31.1
2023-11-01T08:52:27.866Z,35.3
2023-11-01T08:57:34.024Z,44.8
2023-11-01T09:03:29.020Z,53.8
2023-11-01T09:08:34.165Z,47.1
2023-11-01T09:14:02.220Z,38.1
2023-11-01T09:19:08.018Z,34.4
2023-11-01T09:24:46.493Z,33.1
2023-11-01T09:30:07.779Z,39.2
2023-11-01T09:35:13.629Z,50.1
2023-11-01T09:40:34.479Z,57.5
2023-11-01T09:46:11.848Z,53.9
2023-11-01T09:51:17.904Z,55.3
2023-11-01T09:56:54.467Z,56.6
2023-11-01T10:02:15.846Z,58
2023-11-01T10:07:36.908Z,59.8
2023-11-01T10:12:45.530Z,60.7
2023-11-01T10:17:51.955Z,62.6
2023-11-01T10:22:58.015Z,63
2023-11-01T10:28:20.182Z,59.4
2023-11-01T10:33:45.394Z,58.9
2023-11-01T10:39:06.207Z,59.2
2023-11-01T10:44:45.000Z,59.1
2023-11-01T10:50:26.221Z,59.4
2023-11-01T10:56:04.431Z,59.2
2023-11-01T11:01:40.956Z,58.4
2023-11-01T11:07:21.867Z,58.1
2023-11-01T11:13:02.318Z,58.2
2023-11-01T11:18:41.945Z,58.4
2023-11-01T11:28:57.498Z,57.8
2023-11-01T11:34:21.906Z,55.3
2023-11-01T11:39:58.674Z,53.9
2023-11-01T11:45:03.594Z,54.3
2023-11-01T11:50:40.970Z,55.1
2023-11-01T11:56:02.828Z,55.5
2023-11-01T12:01:26.774Z,55.3
2023-11-01T12:06:32.829Z,55.5
2023-11-01T12:12:24.840Z,55.1
2023-11-01T12:18:01.054Z,54.4
2023-11-01T12:23:39.202Z,54.4
2023-11-01T12:28:45.342Z,53.8
2023-11-01T12:33:51.454Z,53.5
2023-11-01T12:38:57.667Z,51
2023-11-01T12:44:37.326Z,52.4
2023-11-01T12:49:43.569Z,53.7
2023-11-01T12:55:35.861Z,54.4
2023-11-01T13:01:16.165Z,54.6
2023-11-01T13:07:08.846Z,54.1
2023-11-01T13:12:30.076Z,53.7
2023-11-01T13:18:27.236Z,53
2023-11-01T13:24:06.621Z,52.6
2023-11-01T13:29:59.051Z,51.9
2023-11-01T13:35:53.149Z,50.8
2023-11-01T13:41:29.149Z,50.2
2023-11-01T13:46:51.025Z,49.2
2023-11-01T13:52:30.781Z,47.5
2023-11-01T13:58:35.767Z,45.4
2023-11-01T14:04:30.124Z,43.4
2023-11-01T14:10:25.468Z,41.9
2023-11-01T14:16:02.643Z,40.3
2023-11-01T14:21:58.341Z,38.2
2023-11-01T14:27:35.053Z,36.1
2023-11-01T14:33:26.698Z,34.1
2023-11-01T14:39:03.539Z,31.6
2023-11-01T14:44:56.731Z,29.2
2023-11-01T14:50:32.793Z,27
2023-11-01T14:56:10.220Z,25.3
2023-11-01T15:02:02.636Z,23.8
2023-11-01T15:07:38.996Z,22.3
2023-11-01T15:13:16.912Z,21.1
2023-11-01T15:18:54.995Z,20
2023-11-01T15:24:46.151Z,19.1
2023-11-01T15:30:39.546Z,18.2
2023-11-01T15:36:35.388Z,17.4
2023-11-01T15:42:29.622Z,16.8
2023-11-01T15:48:26.158Z,16.2
2023-11-01T15:54:06.163Z,15.7
2023-11-01T15:59:45.393Z,15.2
2023-11-01T16:05:42.793Z,14.7
2023-11-01T16:11:04.624Z,14.3
2023-11-01T16:16:59.908Z,13.9
2023-11-01T16:22:54.304Z,13.6
2023-11-01T16:28:46.803Z,13.1
2023-11-01T16:34:26.460Z,12.8
2023-11-01T16:39:48.774Z,12.6
2023-11-01T16:45:41.214Z,12.4
2023-11-01T16:51:36.504Z,12.2
2023-11-01T16:57:28.580Z,12
2023-11-01T17:03:11.665Z,11.8
2023-11-01T17:08:48.513Z,11.6
2023-11-01T17:14:40.536Z,11.4
2023-11-01T17:20:33.082Z,11.2
2023-11-01T17:26:24.087Z,11
2023-11-01T17:32:03.532Z,10.7
2023-11-01T17:37:46.841Z,10.5
2023-11-01T17:43:44.740Z,10.3
2023-11-01T17:49:37.001Z,10.1
2023-11-01T17:55:29.117Z,9.9
2023-11-01T18:01:10.171Z,9.8
2023-11-01T18:06:44.925Z,9.7
2023-11-01T18:12:23.090Z,9.5
2023-11-01T18:18:03.553Z,9.4
2023-11-01T18:23:46.721Z,9.3
2023-11-01T18:29:27.260Z,9.2
2023-11-01T18:35:05.219Z,9.1
2023-11-01T18:40:43.450Z,8.9
2023-11-01T18:46:22.564Z,8.8
2023-11-01T18:51:59.920Z,8.7
2023-11-01T18:57:54.014Z,8.6
2023-11-01T19:03:32.254Z,8.4
2023-11-01T19:09:26.315Z,8.3
2023-11-01T19:15:03.951Z,8.1
2023-11-01T19:21:02.645Z,8
2023-11-01T19:26:56.060Z,7.9
2023-11-01T19:32:40.752Z,7.8
2023-11-01T19:38:43.566Z,7.7
2023-11-01T19:44:06.418Z,7.7
2023-11-01T19:49:29.535Z,7.6
2023-11-01T19:55:11.501Z,7.6
2023-11-01T20:00:50.158Z,7.6
2023-11-01T20:06:29.718Z,7.6
2023-11-01T20:12:08.319Z,7.5
2023-11-01T20:17:38.736Z,7.5
2023-11-01T20:23:17.752Z,7.6
2023-11-01T20:28:43.912Z,7.6
2023-11-01T20:34:21.717Z,7.7
2023-11-01T20:39:59.427Z,7.7
2023-11-01T20:45:37.485Z,7.6
2023-11-01T20:51:15.496Z,7.6
2023-11-01T20:56:37.850Z,7.6
2023-11-01T21:02:15.886Z,7.5
2023-11-01T21:07:38.948Z,7.5
2023-11-01T21:13:19.162Z,7.4
2023-11-01T21:18:57.079Z,7.4
2023-11-01T21:24:22.370Z,7.4
2023-11-01T21:29:59.409Z,7.4
2023-11-01T21:35:49.204Z,7.4
2023-11-01T21:41:24.606Z,7.4
2023-11-01T21:47:11.802Z,7.4
2023-11-01T21:52:33.840Z,7.4
2023-11-01T21:57:54.914Z,7.4
2023-11-01T22:03:26.032Z,7.4
2023-11-01T22:08:56.862Z,7.4
2023-11-01T22:14:32.574Z,7.4
2023-11-01T22:20:11.588Z,7.4
2023-11-01T22:25:47.885Z,7.4
2023-11-01T22:31:41.018Z,7.4
2023-11-01T22:37:18.630Z,7.3
2023-11-01T22:42:55.613Z,7.3
2023-11-01T22:48:48.533Z,7.3
2023-11-01T22:54:39.966Z,7.3
2023-11-01T23:00:30.286Z,7.4
2023-11-01T23:06:21.549Z,7.4
2023-11-01T23:11:58.337Z,7.4
2023-11-01T23:17:34.939Z,7.4
2023-11-01T23:23:12.443Z,7.4
2023-11-01T23:28:51.188Z,7.4
2023-11-01T23:34:37.888Z,7.4
2023-11-01T23:40:24.581Z,7.4
2023-11-01T23:46:00.707Z,7.4
2023-11-01T23:52:28.969Z,7.4
2023-11-01T23:58:21.260Z,7.4
